createdAt,value
2022-11-12T00:00:33.969Z,18.7
2022-11-12T00:03:02.610Z,21
2022-11-12T00:05:04.295Z,20.1
2022-11-12T00:07:06.003Z,20.1
2022-11-12T00:09:10.884Z,19.5
2022-11-12T00:11:12.546Z,17.2
2022-11-12T00:17:17.554Z,19.5
2022-11-12T00:19:19.220Z,18.3
2022-11-12T00:21:20.898Z,17.5
2022-11-12T00:23:25.813Z,19.5
2022-11-12T00:25:27.500Z,17.8
2022-11-12T00:27:29.220Z,17.3
2022-11-12T00:29:30.838Z,17.2
2022-11-12T00:31:32.507Z,14.7
2022-11-12T00:33:34.186Z,16.3
2022-11-12T00:35:35.841Z,17.9
2022-11-12T00:37:40.768Z,17
2022-11-12T00:39:42.425Z,18.3
2022-11-12T00:41:44.109Z,16.4
2022-11-12T00:43:45.791Z,17.2
2022-11-12T00:45:47.420Z,17.6
2022-11-12T00:47:49.092Z,15.7
2022-11-12T00:49:50.764Z,21.2
2022-11-12T00:51:55.685Z,20.3
2022-11-12T00:55:59.209Z,16.8
2022-11-12T00:57:01.467Z,18.2
2022-11-12T00:59:03.142Z,16.4
2022-11-12T01:01:04.824Z,18.1
2022-11-12T01:03:06.457Z,16.7
2022-11-12T01:05:11.375Z,18.3
2022-11-12T01:15:19.708Z,17.4
2022-11-12T01:17:21.379Z,19
2022-11-12T01:23:29.619Z,17.7
2022-11-12T01:25:31.281Z,16.1
2022-11-12T01:27:32.965Z,17.4
2022-11-12T01:29:34.620Z,16.9
2022-11-12T01:31:36.278Z,16.7
2022-11-12T01:33:41.161Z,18.7
2022-11-12T01:35:42.830Z,18.4
2022-11-12T01:37:44.500Z,17.1
2022-11-12T01:39:46.158Z,20.2
2022-11-12T01:41:47.828Z,19.2
2022-11-12T01:43:49.477Z,18.9
2022-11-12T01:45:51.146Z,19.4
2022-11-12T01:49:57.688Z,17.8
2022-11-12T01:51:59.348Z,19.1
2022-11-12T01:55:03.480Z,18
2022-11-12T01:57:05.119Z,15.1
2022-11-12T01:59:06.810Z,17
2022-11-12T02:01:11.776Z,18.1
2022-11-12T02:03:13.345Z,16.3
2022-11-12T02:05:15.004Z,15.9
2022-11-12T02:07:16.692Z,17.3
2022-11-12T02:09:18.319Z,15.6
2022-11-12T02:11:19.983Z,15.5
2022-11-12T02:13:21.629Z,16.8
2022-11-12T02:19:29.841Z,16.8
2022-11-12T02:21:31.493Z,17.2
2022-11-12T02:23:33.156Z,18.3
2022-11-12T02:25:34.831Z,19
2022-11-12T02:27:36.507Z,17.6
2022-11-12T02:29:41.367Z,18.6
2022-11-12T02:33:44.686Z,22.5
2022-11-12T02:35:46.343Z,16.6
2022-11-12T02:39:49.672Z,17
2022-11-12T02:41:51.313Z,18.9
2022-11-12T02:43:56.210Z,19.6
2022-11-12T02:45:57.863Z,18.9
2022-11-12T02:47:59.550Z,19.1
2022-11-12T02:49:01.958Z,20.3
2022-11-12T02:51:03.613Z,20
2022-11-12T02:57:11.823Z,19.3
2022-11-12T02:59:13.481Z,17.3
2022-11-12T03:03:16.807Z,20.2
2022-11-12T03:05:18.440Z,20.4
2022-11-12T03:07:20.198Z,19.3
2022-11-12T03:09:21.749Z,17.3
2022-11-12T03:11:26.646Z,19.4
2022-11-12T03:13:28.271Z,18.7
2022-11-12T03:15:29.942Z,19.1
2022-11-12T03:17:31.602Z,20
2022-11-12T03:19:33.258Z,19.6
2022-11-12T03:21:34.899Z,19
2022-11-12T03:23:36.539Z,20.4
2022-11-12T03:25:41.446Z,18.9
2022-11-12T03:27:43.120Z,18.4
2022-11-12T03:29:44.754Z,17.8
2022-11-12T03:31:46.398Z,19.3
2022-11-12T03:33:48.049Z,19.2
2022-11-12T03:35:49.674Z,17.1
2022-11-12T03:39:56.205Z,18.1
2022-11-12T03:41:57.852Z,16.2
2022-11-12T03:43:59.518Z,16.6
2022-11-12T03:46:28.119Z,19.2
2022-11-12T03:48:29.876Z,18.7
2022-11-12T03:50:31.392Z,18.4
2022-11-12T03:52:36.250Z,18.2
2022-11-12T03:54:37.904Z,18.3
2022-11-12T03:56:39.522Z,17.4
2022-11-12T03:58:41.175Z,17
2022-11-12T04:00:42.823Z,17.7
2022-11-12T04:02:44.456Z,18.1
2022-11-12T04:04:46.097Z,18.2
2022-11-12T04:06:51.001Z,19.8
2022-11-12T04:08:52.586Z,19.1
2022-11-12T04:10:54.205Z,17.9
2022-11-12T04:12:55.862Z,17.6
2022-11-12T04:16:59.135Z,18.4
2022-11-12T04:21:05.636Z,19.7
2022-11-12T04:25:08.909Z,17.6
2022-11-12T04:27:10.540Z,17.2
2022-11-12T04:31:13.821Z,17.5
2022-11-12T04:33:15.448Z,17.7
2022-11-12T04:39:23.590Z,17.2
2022-11-12T04:40:26.031Z,18.3
2022-11-12T04:58:43.969Z,19.9
2022-11-12T05:00:45.608Z,19.5
2022-11-12T05:02:50.487Z,19.7
2022-11-12T05:04:52.115Z,22.5
2022-11-12T05:06:53.886Z,19.1
2022-11-12T05:08:56.975Z,19.5
2022-11-12T05:10:58.574Z,19.5
2022-11-12T05:13:00.217Z,19.1
2022-11-12T05:15:01.874Z,18.6
2022-11-12T05:17:06.729Z,20
2022-11-12T05:19:08.365Z,16.9
2022-11-12T05:21:10.013Z,17.4
2022-11-12T05:23:11.651Z,18.5
2022-11-12T05:25:13.321Z,18.6
2022-11-12T05:27:14.928Z,18.1
2022-11-12T05:29:16.571Z,18.9
2022-11-12T05:31:21.439Z,18.6
2022-11-12T05:33:23.078Z,17.5
2022-11-12T05:35:24.705Z,19
2022-11-12T05:36:27.137Z,17.2
2022-11-12T05:38:29.073Z,17.7
2022-11-12T05:42:32.085Z,15.3
2022-11-12T05:44:36.954Z,17.6
2022-11-12T05:46:38.569Z,16.4
2022-11-12T05:52:43.480Z,16.1
2022-11-12T05:54:45.140Z,16.3
2022-11-12T05:56:46.762Z,14.9
2022-11-12T05:58:51.634Z,15.5
2022-11-12T06:00:53.278Z,15.1
2022-11-12T06:02:54.941Z,16.7
2022-11-12T06:04:56.544Z,15.1
2022-11-12T06:13:06.331Z,16.8
2022-11-12T06:15:07.975Z,15.6
2022-11-12T06:17:09.585Z,16.6
2022-11-12T06:19:11.222Z,14.6
2022-11-12T06:21:12.838Z,15.2
2022-11-12T06:23:14.479Z,16.8
2022-11-12T06:25:16.105Z,15.4
2022-11-12T06:27:20.974Z,16.4
2022-11-12T06:29:22.605Z,16.9
2022-11-12T06:31:24.250Z,15.9
2022-11-12T06:32:26.658Z,16.5
2022-11-12T06:34:28.288Z,15.6
2022-11-12T06:36:29.899Z,13.9
2022-11-12T06:38:31.535Z,16.1
2022-11-12T06:40:36.382Z,17.4
2022-11-12T06:42:38.006Z,14.2
2022-11-12T06:44:39.617Z,15.7
2022-11-12T06:46:41.237Z,14.9
2022-11-12T06:48:42.873Z,15.5
2022-11-12T06:50:44.482Z,16.5
2022-11-12T06:52:46.109Z,16.6
2022-11-12T06:54:50.975Z,18.4
2022-11-12T06:56:52.584Z,16
2022-11-12T06:58:54.205Z,18.6
2022-11-12T07:02:57.435Z,16.7
2022-11-12T07:04:59.062Z,18.3
2022-11-12T07:07:00.688Z,17.6
2022-11-12T07:09:05.541Z,19.8
2022-11-12T07:11:07.155Z,17.4
2022-11-12T07:13:08.760Z,17.8
2022-11-12T07:15:10.421Z,16.9
2022-11-12T07:17:12.024Z,18.8
2022-11-12T07:19:13.637Z,16.3
2022-11-12T07:21:15.268Z,18.2
2022-11-12T07:23:20.128Z,19.8
2022-11-12T07:27:23.365Z,16.9
2022-11-12T07:31:53.608Z,18.5
2022-11-12T07:33:55.247Z,19.7
2022-11-12T07:36:00.146Z,20.7
2022-11-12T07:38:01.728Z,19.3
2022-11-12T07:40:03.346Z,18
2022-11-12T07:42:04.969Z,19.3
2022-11-12T07:44:06.595Z,19.4
2022-11-12T07:46:10.865Z,19.2
2022-11-12T07:48:09.856Z,19.5
2022-11-12T07:50:14.699Z,21.1
2022-11-12T07:52:16.317Z,20.2
2022-11-12T07:54:17.945Z,20.9
2022-11-12T07:56:19.585Z,22.6
2022-11-12T07:58:21.217Z,27.5
2022-11-12T08:00:22.856Z,25.8
2022-11-12T08:02:24.484Z,25.3
2022-11-12T08:04:29.352Z,26.2
2022-11-12T08:06:31.032Z,25.6
2022-11-12T08:08:32.701Z,26.6
2022-11-12T08:10:34.325Z,25.2
2022-11-12T08:12:36.021Z,26
2022-11-12T08:14:37.667Z,19.6
2022-11-12T08:16:39.331Z,20.5
2022-11-12T08:18:44.270Z,17.6
2022-11-12T08:22:49.465Z,14.7
2022-11-12T08:23:50.079Z,13.1
2022-11-12T08:25:51.766Z,11.5
2022-11-12T08:27:53.467Z,10.5
2022-11-12T08:29:55.172Z,8.3
2022-11-12T08:32:00.103Z,8.2
2022-11-12T08:34:01.809Z,8.5
2022-11-12T08:36:03.531Z,7.4
2022-11-12T08:38:05.237Z,6.2
2022-11-12T08:40:06.936Z,6.8
2022-11-12T08:42:08.677Z,7.4
2022-11-12T08:44:10.396Z,5.5
2022-11-12T08:46:15.500Z,5.6
2022-11-12T08:48:17.125Z,5.5
2022-11-12T08:50:18.851Z,5
2022-11-12T08:56:24.074Z,5.3
2022-11-12T08:58:26.133Z,5.5
2022-11-12T09:02:32.573Z,5.7
2022-11-12T09:04:34.323Z,5.3
2022-11-12T09:06:36.104Z,5.6
2022-11-12T09:08:37.866Z,5.5
2022-11-12T09:10:39.618Z,5.9
2022-11-12T09:12:41.380Z,4.5
2022-11-12T09:14:46.368Z,5.4
2022-11-12T09:16:48.118Z,4.9
2022-11-12T09:18:49.905Z,5.4
2022-11-12T09:21:54.162Z,5.5
2022-11-12T09:23:55.912Z,4.7
2022-11-12T09:25:57.685Z,3.7
2022-11-12T09:28:02.702Z,5.5
2022-11-12T09:30:04.474Z,4.3
2022-11-12T09:32:06.264Z,4.2
2022-11-12T09:34:08.047Z,3.6
2022-11-12T09:36:09.827Z,4.8
2022-11-12T09:38:11.594Z,3.9
2022-11-12T09:40:13.371Z,5.4
2022-11-12T09:42:18.419Z,4
2022-11-12T09:52:27.363Z,5
2022-11-12T09:58:36.006Z,4.8
2022-11-12T10:00:42.415Z,3.7
2022-11-12T10:06:43.307Z,4.7
2022-11-12T10:10:50.086Z,4.5
2022-11-12T10:15:56.177Z,5.1
2022-11-12T10:17:58.015Z,4.8
2022-11-12T10:19:59.789Z,4.6
2022-11-12T10:22:01.602Z,4.6
2022-11-12T10:24:06.659Z,5.2
2022-11-12T10:26:08.471Z,3.6
2022-11-12T10:30:12.095Z,4.1
2022-11-12T10:32:13.886Z,5.5
2022-11-12T10:36:17.525Z,5.5
2022-11-12T10:38:22.591Z,3.9
2022-11-12T10:42:26.204Z,4
2022-11-12T10:44:28.036Z,4.4
2022-11-12T10:46:29.843Z,3.9
2022-11-12T10:48:31.786Z,4.5
2022-11-12T10:52:38.541Z,3.5
2022-11-12T10:54:40.352Z,5.1
2022-11-12T11:00:47.360Z,5
2022-11-12T11:02:49.147Z,3.7
2022-11-12T11:06:56.067Z,4.6
2022-11-12T11:08:57.847Z,5.7
2022-11-12T11:10:59.661Z,4.8
2022-11-12T11:13:28.294Z,12.8
2022-11-12T11:15:30.125Z,7.5
2022-11-12T11:17:31.918Z,5.2
2022-11-12T11:21:41.965Z,4
2022-11-12T11:23:40.646Z,4.1
2022-11-12T11:25:42.612Z,4.9
2022-11-12T11:27:44.310Z,5.4
2022-11-12T11:29:46.123Z,4.7
2022-11-12T11:31:47.960Z,4.6
2022-11-12T11:33:53.028Z,5
2022-11-12T11:37:58.648Z,5.9
2022-11-12T11:39:58.494Z,4.4
2022-11-12T11:42:00.308Z,4
2022-11-12T11:44:02.179Z,4.5
2022-11-12T11:46:03.959Z,3.7
2022-11-12T11:48:09.055Z,5.2
2022-11-12T11:52:12.675Z,3.9
2022-11-12T11:54:14.502Z,4.5
2022-11-12T11:56:16.330Z,5.5
2022-11-12T11:58:18.171Z,4.3
2022-11-12T12:00:19.981Z,4.9
2022-11-12T12:02:25.085Z,14.4
2022-11-12T12:04:26.883Z,5.1
2022-11-12T12:06:28.706Z,4.3
2022-11-12T12:07:31.262Z,4
2022-11-12T12:09:33.089Z,4.8
2022-11-12T12:11:34.901Z,4.4
2022-11-12T12:13:36.723Z,4.4
2022-11-12T12:15:41.820Z,3.8
2022-11-12T12:17:43.636Z,3.8
2022-11-12T12:19:45.450Z,4.7
2022-11-12T12:21:47.279Z,4.4
2022-11-12T12:23:49.083Z,5
2022-11-12T12:25:50.918Z,4.9
2022-11-12T12:27:52.717Z,4.2
2022-11-12T12:29:57.714Z,4
2022-11-12T12:31:59.537Z,3.6
2022-11-12T12:34:01.245Z,3.9
2022-11-12T12:36:03.078Z,4.4
2022-11-12T12:38:04.872Z,4.9
2022-11-12T12:40:06.700Z,5
2022-11-12T12:42:08.499Z,4.3
2022-11-12T12:44:13.599Z,4.3
2022-11-12T12:46:15.396Z,4.4
2022-11-12T12:48:17.110Z,4.8
2022-11-12T12:52:20.653Z,3.6
2022-11-12T12:54:22.473Z,4.4
2022-11-12T12:56:24.292Z,3.6
2022-11-12T12:58:29.706Z,4.2
2022-11-12T13:00:31.270Z,4.5
2022-11-12T13:02:33.026Z,4
2022-11-12T13:05:37.250Z,4.9
2022-11-12T13:07:39.004Z,4.4
2022-11-12T13:09:40.701Z,4
2022-11-12T13:13:47.582Z,5.5
2022-11-12T13:15:49.303Z,4.9
2022-11-12T13:17:51.110Z,3.3
2022-11-12T13:19:52.938Z,3
2022-11-12T13:21:54.777Z,4.2
2022-11-12T13:23:56.594Z,3.6
2022-11-12T13:26:01.676Z,5.2
2022-11-12T13:28:03.490Z,4.4
2022-11-12T13:30:05.322Z,4.3
2022-11-12T13:32:07.145Z,5.9
2022-11-12T13:34:08.975Z,4.8
2022-11-12T13:36:10.924Z,4.4
2022-11-12T13:38:12.619Z,4.1
2022-11-12T13:40:17.738Z,5.3
2022-11-12T13:42:19.551Z,4.3
2022-11-12T13:44:21.371Z,8.1
2022-11-12T13:46:23.186Z,9
2022-11-12T13:50:26.828Z,4.9
2022-11-12T13:52:28.651Z,4
2022-11-12T13:54:33.718Z,4.4
2022-11-12T13:56:35.616Z,3.5
2022-11-12T13:58:37.396Z,4.7
2022-11-12T13:59:39.893Z,5.2
2022-11-12T14:01:41.732Z,4.3
2022-11-12T14:03:43.539Z,4.7
2022-11-12T14:05:45.388Z,5.5
2022-11-12T14:07:50.447Z,5.4
2022-11-12T14:09:52.256Z,6.3
2022-11-12T14:11:54.088Z,5.1
2022-11-12T14:13:55.922Z,4.9
2022-11-12T14:15:57.744Z,8
2022-11-12T14:17:59.586Z,7.9
2022-11-12T14:20:01.386Z,7
2022-11-12T14:22:06.448Z,5.6
2022-11-12T14:24:08.262Z,5.6
2022-11-12T14:26:10.099Z,12.9
2022-11-12T14:28:11.911Z,8.7
2022-11-12T14:30:13.728Z,9
2022-11-12T14:32:15.560Z,7.7
2022-11-12T14:34:17.384Z,5.8
2022-11-12T14:36:22.613Z,8.1
2022-11-12T14:38:24.535Z,6.9
2022-11-12T14:40:26.076Z,6.2
2022-11-12T14:42:27.902Z,6.5
2022-11-12T14:44:29.718Z,6.2
2022-11-12T14:46:31.539Z,5.6
2022-11-12T14:48:33.366Z,5.6
2022-11-12T14:50:41.132Z,5.8
2022-11-12T14:52:40.254Z,5.9
2022-11-12T14:54:42.083Z,6.6
2022-11-12T14:57:10.707Z,7.1
2022-11-12T14:59:12.542Z,5
2022-11-12T15:01:35.978Z,7.5
2022-11-12T15:03:19.408Z,6
2022-11-12T15:05:21.269Z,5.3
2022-11-12T15:07:23.040Z,7.8
2022-11-12T15:09:24.876Z,7
2022-11-12T15:11:26.676Z,6.9
2022-11-12T15:13:28.767Z,7
2022-11-12T15:19:37.202Z,6.2
2022-11-12T15:21:39.007Z,9.8
2022-11-12T15:23:40.820Z,7
2022-11-12T15:27:44.443Z,14.6
2022-11-12T15:31:51.329Z,7.2
2022-11-12T15:33:53.130Z,9.4
2022-11-12T15:35:54.969Z,8.1
2022-11-12T15:37:56.738Z,7.9
2022-11-12T15:39:58.553Z,8.1
2022-11-12T15:42:00.382Z,13
2022-11-12T15:44:02.198Z,11.8
2022-11-12T15:46:07.244Z,15.7
2022-11-12T15:50:10.863Z,9.2
2022-11-12T15:51:13.392Z,12.6
2022-11-12T15:53:15.197Z,10.1
2022-11-12T15:55:16.995Z,10.8
2022-11-12T15:57:18.822Z,9.3
2022-11-12T15:59:23.856Z,7.6
2022-11-12T16:01:25.727Z,8.5
2022-11-12T16:03:27.792Z,7.9
2022-11-12T16:05:29.282Z,11.8
2022-11-12T16:07:31.094Z,7.7
2022-11-12T16:09:32.925Z,8.2
2022-11-12T16:11:34.677Z,22
2022-11-12T16:13:39.748Z,8.7
2022-11-12T16:15:41.692Z,8.5
2022-11-12T16:17:43.348Z,9.5
2022-11-12T16:19:45.170Z,6.3
2022-11-12T16:21:47.000Z,7.4
2022-11-12T16:23:48.784Z,6.1
2022-11-12T16:29:57.423Z,6.4
2022-11-12T16:31:59.240Z,7.8
2022-11-12T16:34:01.050Z,9.2
2022-11-12T16:36:02.842Z,7.5
2022-11-12T16:38:04.636Z,8.4
2022-11-12T16:40:06.462Z,7.7
2022-11-12T16:42:11.479Z,7.6
2022-11-12T16:44:13.275Z,6.6
2022-11-12T16:46:15.102Z,13.2
2022-11-12T16:49:19.398Z,9.6
2022-11-12T16:51:22.757Z,9.1
2022-11-12T16:53:24.724Z,12.4
2022-11-12T16:55:29.568Z,14.3
2022-11-12T16:57:31.372Z,10.1
2022-11-12T16:59:33.190Z,15.2
2022-11-12T17:01:35.031Z,22.1
2022-11-12T17:03:36.766Z,13.7
2022-11-12T17:05:38.542Z,20.2
2022-11-12T17:07:40.340Z,14.1
2022-11-12T17:09:45.368Z,17.3
2022-11-12T17:11:47.174Z,13.2
2022-11-12T17:13:48.957Z,12
2022-11-12T17:17:52.551Z,14.7
2022-11-12T17:19:54.311Z,12.7
2022-11-12T17:21:56.135Z,13.7
2022-11-12T17:26:02.952Z,12.4
2022-11-12T17:27:58.878Z,12.3
2022-11-12T17:30:00.690Z,11.2
2022-11-12T17:32:02.454Z,21
2022-11-12T17:40:12.830Z,15
2022-11-12T17:45:18.873Z,15.6
2022-11-12T17:47:20.656Z,16.9
2022-11-12T17:49:22.424Z,16.7
2022-11-12T17:51:27.428Z,17
2022-11-12T17:53:29.577Z,16.4
2022-11-12T17:55:30.953Z,17.9
2022-11-12T17:57:32.719Z,15.7
2022-11-12T17:59:34.469Z,15.5
2022-11-12T18:01:36.264Z,21.4
2022-11-12T18:03:38.033Z,18.5
2022-11-12T18:05:43.012Z,18.7
2022-11-12T18:07:44.781Z,19.8
2022-11-12T18:09:46.546Z,17.9
2022-11-12T18:11:48.357Z,17.9
2022-11-12T18:13:50.052Z,21.7
2022-11-12T18:15:51.802Z,24.1
2022-11-12T18:17:53.573Z,21
2022-11-12T18:19:58.591Z,21.9
2022-11-12T18:22:00.324Z,20.1
2022-11-12T18:24:02.093Z,17.8
2022-11-12T18:26:03.850Z,16.5
2022-11-12T18:28:05.611Z,15.8
2022-11-12T18:30:07.414Z,18.3
2022-11-12T18:32:09.115Z,20.6
2022-11-12T18:34:14.114Z,21.3
2022-11-12T18:36:15.845Z,24.6
2022-11-12T18:38:17.603Z,25.3
2022-11-12T18:40:46.248Z,26.8
2022-11-12T18:42:48.010Z,24.6
2022-11-12T18:44:49.747Z,24.1
2022-11-12T18:46:54.733Z,26
2022-11-12T18:48:56.505Z,20.7
2022-11-12T18:50:58.261Z,25.5
2022-11-12T18:55:01.771Z,22.5
2022-11-12T18:57:03.503Z,26.4
2022-11-12T18:59:05.261Z,21.1
2022-11-12T19:01:10.317Z,24.2
2022-11-12T19:05:13.740Z,28
2022-11-12T19:07:15.562Z,26.9
2022-11-12T19:11:19.000Z,28.3
2022-11-12T19:13:20.725Z,26.8
2022-11-12T19:15:27.004Z,30.3
2022-11-12T19:17:30.905Z,39.8
2022-11-12T19:19:29.217Z,39
2022-11-12T19:21:30.954Z,35.4
2022-11-12T19:23:32.704Z,37.6
2022-11-12T19:25:34.456Z,41.9
2022-11-12T19:27:36.167Z,42.2
2022-11-12T19:29:41.144Z,40.3
2022-11-12T19:31:42.891Z,40.9
2022-11-12T19:33:44.512Z,36
2022-11-12T19:34:47.065Z,35.1
2022-11-12T19:44:58.938Z,38.2
2022-11-12T19:51:04.156Z,37.8
2022-11-12T19:53:05.887Z,38.7
2022-11-12T19:55:07.645Z,42.6
2022-11-12T19:57:12.583Z,37.1
2022-11-12T19:59:14.322Z,35.8
2022-11-12T20:01:16.215Z,35.2
2022-11-12T20:05:19.539Z,31.1
2022-11-12T20:07:21.337Z,32.9
2022-11-12T20:09:22.992Z,41.7
2022-11-12T20:11:28.031Z,37.1
2022-11-12T20:13:29.730Z,40.3
2022-11-12T20:19:34.905Z,37
2022-11-12T20:21:36.608Z,37.7
2022-11-12T20:23:38.340Z,32.3
2022-11-12T20:25:43.284Z,35.8
2022-11-12T20:27:45.017Z,35.2
2022-11-12T20:29:46.759Z,36.4
2022-11-12T20:30:49.399Z,41.2
2022-11-12T20:34:52.683Z,43.6
2022-11-12T20:36:54.439Z,42.4
2022-11-12T20:38:59.358Z,40.5
2022-11-12T20:41:01.102Z,41.2
2022-11-12T20:43:02.832Z,40.9
2022-11-12T20:45:04.544Z,39.9
2022-11-12T20:47:06.257Z,76.4
2022-11-12T20:49:08.002Z,46.5
2022-11-12T20:51:23.305Z,41
2022-11-12T20:53:14.657Z,42.8
2022-11-12T20:55:16.372Z,43.6
2022-11-12T20:57:18.096Z,43
2022-11-12T21:01:21.596Z,37.9
2022-11-12T21:03:23.252Z,40.3
2022-11-12T21:05:24.956Z,42.5
2022-11-12T21:07:29.995Z,41
2022-11-12T21:09:31.645Z,39.4
2022-11-12T21:11:33.354Z,41.2
2022-11-12T21:13:35.094Z,40.9
2022-11-12T21:15:36.778Z,47.5
2022-11-12T21:17:38.476Z,54.2
2022-11-12T21:19:40.203Z,53.7
2022-11-12T21:21:45.149Z,60.7
2022-11-12T21:26:51.035Z,47.3
2022-11-12T21:28:52.766Z,45.7
2022-11-12T21:30:54.625Z,41.3
2022-11-12T21:32:56.186Z,38.6
2022-11-12T21:35:01.114Z,41.6
2022-11-12T21:37:02.844Z,38.3
2022-11-12T21:39:04.552Z,38
2022-11-12T21:41:06.259Z,40.6
2022-11-12T21:45:09.691Z,41.6
2022-11-12T21:47:11.404Z,39.7
2022-11-12T21:49:16.343Z,49.4
2022-11-12T21:51:18.069Z,48.6
2022-11-12T21:53:19.766Z,43
2022-11-12T21:59:24.870Z,43.1
2022-11-12T22:01:26.589Z,76.9
2022-11-12T22:05:33.334Z,40.9
2022-11-12T22:07:34.933Z,41.3
2022-11-12T22:09:36.664Z,39.2
2022-11-12T22:11:38.344Z,42.4
2022-11-12T22:13:40.089Z,37.7
2022-11-12T22:15:41.767Z,39.5
2022-11-12T22:17:46.704Z,41.6
2022-11-12T22:19:48.409Z,35.8
2022-11-12T22:24:18.779Z,33.8
2022-11-12T22:26:20.543Z,32.2
2022-11-12T22:30:27.199Z,34.5
2022-11-12T22:32:28.880Z,31.5
2022-11-12T22:34:30.608Z,35.3
2022-11-12T22:36:32.312Z,27.8
2022-11-12T22:38:34.018Z,28.8
2022-11-12T22:40:35.731Z,28.7
2022-11-12T22:42:38.982Z,28
2022-11-12T22:44:43.897Z,28.1
2022-11-12T22:46:45.609Z,24.8
2022-11-12T22:50:49.123Z,31.5
2022-11-12T22:52:50.701Z,28.2
2022-11-12T22:56:54.144Z,27
2022-11-12T23:01:00.789Z,28
2022-11-12T23:03:02.451Z,26.4
2022-11-12T23:05:04.189Z,26
2022-11-12T23:07:05.899Z,29.3
2022-11-12T23:09:07.567Z,25.9
2022-11-12T23:13:14.202Z,29.3
2022-11-12T23:15:15.903Z,28.3
2022-11-12T23:17:17.596Z,30
2022-11-12T23:20:21.805Z,30.7
2022-11-12T23:22:23.472Z,30.1
2022-11-12T23:24:25.183Z,28
2022-11-12T23:26:30.119Z,32.9
2022-11-12T23:32:35.210Z,28.5
2022-11-12T23:34:36.921Z,31.1
2022-11-12T23:42:46.954Z,27.5
2022-11-12T23:44:48.654Z,27.6
2022-11-12T23:46:50.347Z,27.8
2022-11-12T23:48:52.035Z,27.1
2022-11-12T23:50:53.751Z,26.6
2022-11-12T23:52:55.427Z,27.4
2022-11-12T23:55:00.365Z,28.4
2022-11-12T23:57:02.066Z,29.7
